New Orleans, Louisiana
Traffic Map
Current Weather Conditions
New Orleans, Louisiana
Clear
Clear
71°
Feels Like: 71°
Wind Chill: 71° Ceiling: Unl
Heat Index: 71° Visibility: 7mi
Dew Point: 68° Wind: 8mph
Humidity: 90% Direction: 130° (SE)
Pressure: 30.28in Gusts: 0mph
Raw Report DataKNEW 230753Z AUTO 13007KT 7SM CLR 22/20 A3028 RMK AO2 SLP246 T02170200
Traffic Incident Summary
Active as of:
Severity:
Category:
InformationThere was an issue retrieving the traffic information for this location. Please try a different location or try again shortly.
Advertisements